Time;durP1;ratioP1;P1;durP2;ratioP2;P2;SDS_P1;SDS_P2;PMS_P1;PMS_P2;Temp;Humidity;BMP_temperature;BMP_pressure;BME280_temperature;BME280_humidity;BME280_pressure;Samples;Min_cycle;Max_cycle;Signal;HPM_P1;HPM_P2
2021/07/25 00:00:23;;;;;;;14.30;10.55;;;;;;;18.83;100.00;99762.03;5035022;28;20072;-69
2021/07/25 00:03:08;;;;;;;16.15;11.05;;;;;;;18.81;100.00;99764.13;5035115;28;20072;-69
2021/07/25 00:05:52;;;;;;;16.48;10.77;;;;;;;18.80;100.00;99762.47;5021176;28;20075;-69
2021/07/25 00:08:36;;;;;;;19.80;11.57;;;;;;;18.73;100.00;99753.53;5036063;28;20406;-67
2021/07/25 00:11:20;;;;;;;15.73;11.82;;;;;;;18.70;100.00;99762.06;5034726;28;20132;-69
2021/07/25 00:14:06;;;;;;;16.42;12.00;;;;;;;18.66;100.00;99752.72;5034862;28;20484;-69
2021/07/25 00:16:51;;;;;;;16.27;10.80;;;;;;;18.60;100.00;99751.69;5035026;28;20056;-67
2021/07/25 00:19:37;;;;;;;13.05;10.88;;;;;;;18.57;100.00;99757.47;5035671;28;20052;-69
2021/07/25 00:22:21;;;;;;;17.00;10.95;;;;;;;18.54;100.00;99754.34;5021028;28;20144;-69
2021/07/25 00:25:12;;;;;;;13.65;10.63;;;;;;;18.53;100.00;99752.69;5035650;28;20460;-66
2021/07/25 00:27:56;;;;;;;11.30;10.02;;;;;;;18.58;100.00;99752.94;5021726;28;20060;-68
2021/07/25 00:30:40;;;;;;;20.55;10.13;;;;;;;18.51;100.00;99746.69;5034238;28;20494;-69
2021/07/25 00:33:24;;;;;;;12.25;9.77;;;;;;;18.52;100.00;99737.53;5020635;28;20056;-69
2021/07/25 00:36:08;;;;;;;12.70;9.82;;;;;;;18.54;100.00;99748.97;5034418;28;20067;-69
2021/07/25 00:38:52;;;;;;;15.27;10.25;;;;;;;18.52;100.00;99749.19;5020560;28;20056;-70
2021/07/25 00:41:36;;;;;;;14.20;9.82;;;;;;;18.56;100.00;99755.00;5020270;28;20103;-68
2021/07/25 00:44:21;;;;;;;15.40;10.00;;;;;;;18.55;100.00;99756.00;5020284;28;20517;-69
2021/07/25 00:47:04;;;;;;;12.27;9.48;;;;;;;18.54;100.00;99751.66;5020209;28;20054;-68
2021/07/25 00:49:48;;;;;;;12.88;9.65;;;;;;;18.57;100.00;99751.25;5035090;28;20095;-69
2021/07/25 00:52:33;;;;;;;13.98;9.80;;;;;;;18.54;100.00;99754.34;5033824;28;20052;-69
2021/07/25 00:55:19;;;;;;;13.63;8.63;;;;;;;18.56;100.00;99744.22;5034090;28;20075;-69
2021/07/25 00:58:03;;;;;;;11.80;9.10;;;;;;;18.62;100.00;99754.16;5019723;28;20084;-69
2021/07/25 01:00:47;;;;;;;19.15;9.82;;;;;;;18.64;100.00;99747.53;5034173;28;20491;-70
2021/07/25 01:03:50;;;;;;;11.60;9.55;;;;;;;18.63;100.00;99739.63;5033930;28;20040;-69
2021/07/25 01:06:36;;;;;;;13.90;9.10;;;;;;;18.62;100.00;99748.75;5032602;28;20054;-69
2021/07/25 01:09:27;;;;;;;14.00;9.27;;;;;;;18.60;100.00;99748.13;5033360;28;20506;-69
2021/07/25 01:12:17;;;;;;;13.35;8.90;;;;;;;18.68;100.00;99748.75;5033841;28;20151;-68
2021/07/25 01:15:02;;;;;;;14.82;9.52;;;;;;;18.67;100.00;99743.59;5033486;28;20490;-69
2021/07/25 01:17:46;;;;;;;11.38;9.63;;;;;;;18.65;100.00;99754.56;5033699;28;20072;-69
2021/07/25 01:20:29;;;;;;;12.57;9.13;;;;;;;18.68;100.00;99753.34;5033570;28;20055;-69
2021/07/25 01:23:13;;;;;;;13.88;8.90;;;;;;;18.72;100.00;99759.97;5033545;28;20051;-69
2021/07/25 01:25:58;;;;;;;13.57;8.38;;;;;;;18.74;100.00;99763.28;5033340;28;20052;-69
2021/07/25 01:28:46;;;;;;;13.02;9.43;;;;;;;18.75;100.00;99759.53;5033398;28;20095;-70
2021/07/25 01:31:36;;;;;;;15.70;9.15;;;;;;;18.77;100.00;99763.72;5033454;28;20052;-70
2021/07/25 01:34:20;;;;;;;13.27;8.55;;;;;;;18.81;100.00;99758.72;5019134;28;20052;-70
2021/07/25 01:37:05;;;;;;;13.32;8.73;;;;;;;18.85;100.00;99755.41;5033341;28;20052;-69
2021/07/25 01:39:49;;;;;;;11.27;8.52;;;;;;;18.84;100.00;99752.91;5033087;28;20187;-69
2021/07/25 01:42:33;;;;;;;11.82;9.15;;;;;;;18.89;100.00;99755.81;5033221;28;20549;-70
2021/07/25 01:45:17;;;;;;;14.18;8.60;;;;;;;18.94;100.00;99756.00;5033925;28;20071;-69
2021/07/25 01:48:02;;;;;;;16.27;9.10;;;;;;;19.01;100.00;99746.03;5033036;28;20406;-69
2021/07/25 01:50:46;;;;;;;14.38;9.25;;;;;;;19.00;100.00;99752.47;5032652;28;20103;-69
2021/07/25 01:53:30;;;;;;;12.68;8.73;;;;;;;18.97;100.00;99759.13;5033966;28;20552;-70
2021/07/25 01:56:14;;;;;;;11.15;8.48;;;;;;;19.01;100.00;99760.38;5032970;28;20064;-69
2021/07/25 01:59:01;;;;;;;13.48;9.18;;;;;;;19.04;100.00;99761.81;5019083;28;20052;-69
2021/07/25 02:01:45;;;;;;;13.27;9.43;;;;;;;19.06;100.00;99763.25;5032752;28;20202;-69
2021/07/25 02:04:29;;;;;;;15.68;9.23;;;;;;;19.11;100.00;99762.63;5033803;28;20044;-69
2021/07/25 02:07:13;;;;;;;15.80;9.55;;;;;;;19.07;100.00;99759.53;5033728;28;20056;-68
2021/07/25 02:09:57;;;;;;;12.25;10.25;;;;;;;19.08;100.00;99755.78;5032216;28;20129;-70
2021/07/25 02:12:41;;;;;;;15.90;10.18;;;;;;;19.15;100.00;99772.81;5032634;28;20133;-70
2021/07/25 02:15:25;;;;;;;13.43;10.20;;;;;;;19.20;100.00;99777.63;5032288;28;20053;-70
2021/07/25 02:18:09;;;;;;;;;;;;;;;19.24;100.00;99770.75;5032641;28;20047;-70
2021/07/25 02:20:53;;;;;;;16.92;10.40;;;;;;;19.28;100.00;99766.59;5033163;28;19923;-70
2021/07/25 02:23:37;;;;;;;14.57;10.90;;;;;;;19.27;100.00;99770.34;5018277;28;20517;-69
2021/07/25 02:26:21;;;;;;;16.17;11.13;;;;;;;19.34;100.00;99765.72;5032159;28;20111;-70
2021/07/25 02:29:05;;;;;;;16.67;11.63;;;;;;;19.37;100.00;99765.31;5032235;28;20052;-70
2021/07/25 02:31:49;;;;;;;12.95;10.45;;;;;;;19.41;100.00;99761.97;5032322;28;20048;-70
2021/07/25 02:34:33;;;;;;;15.35;11.50;;;;;;;19.47;100.00;99765.69;5032087;28;20052;-69
2021/07/25 02:37:17;;;;;;;14.85;10.63;;;;;;;19.49;100.00;99769.84;5031907;28;20048;-70
2021/07/25 02:40:01;;;;;;;;;;;;;;;19.46;100.00;99772.13;5032328;28;20124;-69
2021/07/25 02:42:45;;;;;;;16.37;10.23;;;;;;;19.46;100.00;99774.84;5032128;28;19920;-70
2021/07/25 02:45:29;;;;;;;;;;;;;;;19.43;100.00;99773.41;5033481;28;20052;-70
2021/07/25 02:48:13;;;;;;;11.93;9.93;;;;;;;19.46;100.00;99774.84;5032032;28;19963;-70
2021/07/25 02:51:00;;;;;;;;;;;;;;;19.45;100.00;99776.72;5018424;28;20198;-69
2021/07/25 02:53:44;;;;;;;12.88;9.63;;;;;;;19.40;100.00;99775.69;5032677;28;19924;-70
2021/07/25 02:56:28;;;;;;;16.02;10.05;;;;;;;19.39;100.00;99774.84;5032947;28;20056;-70
2021/07/25 02:59:13;;;;;;;18.33;10.13;;;;;;;19.41;100.00;99774.66;5032727;28;20068;-67
2021/07/25 03:01:57;;;;;;;17.13;9.65;;;;;;;19.39;100.00;99766.75;5018165;28;20048;-70
2021/07/25 03:04:41;;;;;;;13.75;9.65;;;;;;;19.37;100.00;99768.03;5017893;28;20095;-70
2021/07/25 03:07:25;;;;;;;11.90;9.13;;;;;;;19.34;100.00;99776.53;5031776;28;20056;-70
2021/07/25 03:10:09;;;;;;;14.65;9.65;;;;;;;19.27;100.00;99775.75;5049696;22;20108;-64
2021/07/25 03:12:54;;;;;;;12.18;9.20;;;;;;;19.19;100.00;99784.06;5011868;28;20053;-67
2021/07/25 03:15:38;;;;;;;11.20;9.45;;;;;;;19.10;100.00;99769.09;5011768;28;20056;-67
2021/07/25 03:18:21;;;;;;;13.55;10.18;;;;;;;19.12;100.00;99772.41;4997823;28;20605;-66
2021/07/25 03:21:06;;;;;;;21.42;10.10;;;;;;;19.03;100.00;99774.50;5024794;28;20609;-67
2021/07/25 03:23:50;;;;;;;17.42;11.27;;;;;;;19.00;100.00;99769.50;5032847;28;20045;-66
2021/07/25 03:26:33;;;;;;;12.70;9.98;;;;;;;18.90;100.00;99768.28;5031312;28;20056;-64
2021/07/25 03:29:17;;;;;;;14.00;10.45;;;;;;;18.90;100.00;99771.78;5020016;28;20088;-66
2021/07/25 03:32:01;;;;;;;16.23;11.20;;;;;;;18.87;100.00;99763.31;5035323;28;20053;-67
2021/07/25 03:34:46;;;;;;;16.27;11.23;;;;;;;18.81;100.00;99761.44;5035223;28;20095;-66
2021/07/25 03:37:30;;;;;;;20.60;11.88;;;;;;;18.76;100.00;99772.03;5035487;28;20048;-67
2021/07/25 03:40:15;;;;;;;12.57;10.57;;;;;;;18.74;100.00;99764.13;5035401;28;20235;-66
2021/07/25 03:42:59;;;;;;;17.73;11.60;;;;;;;18.71;100.00;99774.50;5035111;28;20044;-66
2021/07/25 03:45:47;;;;;;;14.93;11.55;;;;;;;18.70;100.00;99778.25;5036601;28;20052;-66
2021/07/25 03:48:31;;;;;;;15.48;11.38;;;;;;;18.64;100.00;99773.66;5021330;28;20053;-67
2021/07/25 03:51:15;;;;;;;18.80;11.15;;;;;;;18.60;100.00;99784.09;5036211;28;20505;-67
2021/07/25 03:53:59;;;;;;;13.85;10.63;;;;;;;18.53;100.00;99777.00;5036153;28;20048;-66
2021/07/25 03:56:43;;;;;;;15.02;10.45;;;;;;;18.51;100.00;99785.31;5035208;28;20056;-67
2021/07/25 03:59:27;;;;;;;15.45;10.82;;;;;;;18.52;100.00;99775.34;5036274;28;20052;-65
2021/07/25 04:02:10;;;;;;;17.58;11.85;;;;;;;18.57;100.00;99784.47;5034811;28;20120;-66
2021/07/25 04:04:54;;;;;;;19.38;12.02;;;;;;;18.62;100.00;99781.16;5035083;28;20048;-66
2021/07/25 04:07:38;;;;;;;17.70;10.55;;;;;;;18.65;100.00;99783.44;5034882;28;20049;-67
2021/07/25 04:10:22;;;;;;;;;;;;;;;18.67;100.00;99778.69;5035103;28;20168;-66
2021/07/25 04:13:06;;;;;;;15.23;10.83;;;;;;;18.72;100.00;99778.88;5035624;28;19928;-66
2021/07/25 04:15:50;;;;;;;18.02;10.63;;;;;;;18.66;100.00;99777.03;5035623;28;20048;-67
2021/07/25 04:18:34;;;;;;;14.18;10.55;;;;;;;18.72;100.00;99782.41;5035650;28;20072;-67
2021/07/25 04:21:18;;;;;;;14.02;10.27;;;;;;;18.76;100.00;99780.13;5034397;28;20047;-64
2021/07/25 04:24:02;;;;;;;12.70;9.88;;;;;;;18.83;100.00;99789.91;5034695;28;20076;-66
2021/07/25 04:26:46;;;;;;;13.45;10.07;;;;;;;18.83;100.00;99783.66;5034619;28;20056;-66
2021/07/25 04:29:30;;;;;;;13.27;9.65;;;;;;;18.78;100.00;99786.97;5034848;28;20052;-66
2021/07/25 04:32:15;;;;;;;16.75;9.73;;;;;;;18.88;100.00;99791.97;5034639;28;20045;-67
2021/07/25 04:34:59;;;;;;;17.73;10.07;;;;;;;18.90;100.00;99789.88;5035389;28;20052;-66
2021/07/25 04:37:53;;;;;;;14.27;9.77;;;;;;;18.95;100.00;99784.66;5020548;28;20044;-66
2021/07/25 04:40:39;;;;;;;13.35;9.55;;;;;;;19.03;100.00;99784.47;5033952;28;20115;-66
2021/07/25 04:43:28;;;;;;;12.85;9.48;;;;;;;19.10;100.00;99788.00;5034101;28;20048;-66
2021/07/25 04:46:28;;;;;;;12.52;9.50;;;;;;;19.18;100.00;99787.81;5035309;28;20047;-67
2021/07/25 04:49:14;;;;;;;13.38;9.70;;;;;;;19.25;100.00;99796.72;5035249;28;20115;-67
2021/07/25 04:51:59;;;;;;;11.93;9.45;;;;;;;19.27;100.00;99791.97;5035340;28;20556;-67
2021/07/25 04:54:43;;;;;;;11.88;9.05;;;;;;;19.29;100.00;99801.50;5034028;28;20141;-67
2021/07/25 04:57:30;;;;;;;10.50;9.35;;;;;;;19.31;100.00;99810.22;5034044;28;20133;-67
2021/07/25 05:00:15;;;;;;;15.75;9.35;;;;;;;19.34;100.00;99807.13;5020007;28;20418;-67
2021/07/25 05:03:02;;;;;;;13.35;9.60;;;;;;;19.28;100.00;99815.25;5034035;28;20196;-67
2021/07/25 05:05:46;;;;;;;17.80;9.57;;;;;;;19.38;100.00;99810.22;5033924;28;20044;-66
2021/07/25 05:08:30;;;;;;;12.55;10.07;;;;;;;19.43;100.00;99813.13;5033738;28;20513;-67
2021/07/25 05:11:20;;;;;;;13.40;10.27;;;;;;;19.48;100.00;99806.03;5033436;28;20048;-66
2021/07/25 05:14:09;;;;;;;13.50;9.45;;;;;;;19.60;100.00;99808.91;5033572;28;20414;-67
2021/07/25 05:17:29;;;;;;;12.35;9.20;;;;;;;19.63;100.00;99817.44;5033479;28;20049;-67
2021/07/25 05:20:16;;;;;;;14.95;10.00;;;;;;;19.64;100.00;99821.81;5033813;28;20057;-67
2021/07/25 05:23:14;;;;;;;15.50;9.48;;;;;;;19.72;100.00;99818.03;5033597;28;20049;-67
2021/07/25 05:25:58;;;;;;;13.80;9.18;;;;;;;19.77;100.00;99816.34;5034329;28;20064;-65
2021/07/25 05:28:43;;;;;;;15.57;9.95;;;;;;;19.90;100.00;99815.47;5033748;28;20102;-67
2021/07/25 05:31:29;;;;;;;11.90;9.23;;;;;;;19.96;100.00;99817.28;5033143;28;20116;-67
2021/07/25 05:34:13;;;;;;;13.68;9.82;;;;;;;20.02;100.00;99813.75;5033329;28;20049;-66
2021/07/25 05:36:57;;;;;;;12.98;10.50;;;;;;;20.00;100.00;99816.66;5034384;28;20053;-67
2021/07/25 05:39:41;;;;;;;15.73;10.55;;;;;;;19.94;100.00;99819.38;5033020;28;20044;-67
2021/07/25 05:42:25;;;;;;;13.88;10.70;;;;;;;19.93;100.00;99825.84;5019221;28;20052;-67
2021/07/25 05:45:11;;;;;;;20.25;11.93;;;;;;;19.87;100.00;99821.28;5033152;28;20044;-67
2021/07/25 05:47:55;;;;;;;15.85;10.57;;;;;;;19.93;100.00;99825.84;5033979;28;20095;-66
2021/07/25 05:50:38;;;;;;;19.52;11.82;;;;;;;19.82;100.00;99830.03;5032769;28;20125;-67
2021/07/25 05:53:22;;;;;;;21.15;11.75;;;;;;;19.74;100.00;99824.03;5033927;28;20060;-67
2021/07/25 05:56:06;;;;;;;17.65;12.57;;;;;;;19.78;100.00;99825.31;5032993;28;20103;-66
2021/07/25 05:58:50;;;;;;;19.90;13.32;;;;;;;19.76;100.00;99821.94;5033208;28;20048;-67
2021/07/25 06:01:34;;;;;;;17.80;12.20;;;;;;;19.72;100.00;99835.06;5033597;28;20052;-67
2021/07/25 06:04:18;;;;;;;21.13;12.77;;;;;;;19.81;100.00;99839.19;5018775;28;20466;-66
2021/07/25 06:07:02;;;;;;;19.70;13.85;;;;;;;19.72;100.00;99829.66;5033729;28;20210;-66
2021/07/25 06:09:46;;;;;;;15.77;12.60;;;;;;;19.81;100.00;99835.69;5018244;28;20418;-66
2021/07/25 06:12:30;;;;;;;;;;;;;;;19.91;100.00;99836.06;5034114;28;20142;-66
2021/07/25 06:15:14;;;;;;;21.03;13.03;;;;;;;19.95;100.00;99830.00;5033589;28;20382;-66
2021/07/25 06:18:01;;;;;;;23.10;13.80;;;;;;;19.91;100.00;99827.94;5033336;28;20052;-62
2021/07/25 06:20:45;;;;;;;20.23;13.38;;;;;;;19.94;100.00;99822.09;5033849;28;20056;-62
2021/07/25 06:23:29;;;;;;;20.65;13.60;;;;;;;20.00;100.00;99832.06;5033287;28;20048;-66
2021/07/25 06:26:13;;;;;;;18.17;13.05;;;;;;;20.05;100.00;99834.97;5032138;28;20048;-64
2021/07/25 06:28:58;;;;;;;16.10;12.73;;;;;;;20.18;100.00;99832.19;5018160;28;20159;-66
2021/07/25 06:31:41;;;;;;;17.98;12.65;;;;;;;20.19;100.00;99820.38;5018426;28;20068;-66
2021/07/25 06:34:25;;;;;;;20.33;12.82;;;;;;;20.31;100.00;99824.03;5032335;28;20502;-66
2021/07/25 06:37:09;;;;;;;13.77;11.65;;;;;;;20.44;100.00;99829.38;5033062;28;20060;-65
2021/07/25 06:39:53;;;;;;;15.13;11.48;;;;;;;20.56;100.00;99828.47;5033141;28;20076;-66
2021/07/25 06:42:37;;;;;;;14.73;10.57;;;;;;;20.63;100.00;99834.63;5031976;28;20478;-66
2021/07/25 06:45:21;;;;;;;12.50;10.00;;;;;;;20.76;100.00;99828.31;5032120;28;20052;-66
2021/07/25 06:48:22;;;;;;;12.05;10.10;;;;;;;20.86;100.00;99832.22;5031956;28;20505;-63
2021/07/25 06:51:07;;;;;;;12.77;10.05;;;;;;;21.11;100.00;99829.50;5031840;28;20044;-66
2021/07/25 06:53:51;;;;;;;14.93;9.90;;;;;;;21.38;100.00;99829.88;5033143;28;20045;-67
2021/07/25 06:56:34;;;;;;;;;;;;;;;21.65;100.00;99836.72;5033110;28;20087;-67
2021/07/25 06:59:18;;;;;;;9.95;8.55;;;;;;;21.83;100.00;99827.75;5017755;28;19975;-67
2021/07/25 07:02:02;;;;;;;12.77;7.43;;;;;;;21.92;100.00;99819.09;5032683;28;20481;-67
2021/07/25 07:04:46;;;;;;;13.52;7.85;;;;;;;22.08;100.00;99823.88;5030991;28;20183;-67
2021/07/25 07:07:31;;;;;;;11.02;7.63;;;;;;;22.16;100.00;99820.00;5032673;28;20482;-67
2021/07/25 07:10:16;;;;;;;12.48;8.23;;;;;;;21.93;99.64;99820.72;5033298;28;20048;-64
2021/07/25 07:13:02;;;;;;;11.43;7.97;;;;;;;21.71;100.00;99824.13;5032113;28;20049;-66
2021/07/25 07:15:48;;;;;;;9.23;7.93;;;;;;;21.82;100.00;99820.66;5032080;28;20505;-64
2021/07/25 07:18:31;;;;;;;12.30;7.88;;;;;;;21.82;100.00;99826.94;5017929;28;20508;-64
2021/07/25 07:21:16;;;;;;;9.57;7.63;;;;;;;21.67;100.00;99829.16;5031659;28;20056;-64
2021/07/25 07:24:00;;;;;;;13.73;7.30;;;;;;;21.72;100.00;99832.06;5032366;28;20187;-67
2021/07/25 07:26:44;;;;;;;10.52;7.50;;;;;;;21.91;100.00;99830.97;5032461;28;20155;-67
2021/07/25 07:29:28;;;;;;;9.65;7.65;;;;;;;22.20;100.00;99819.31;5031305;28;20522;-66
2021/07/25 07:32:12;;;;;;;;;;;;;;;22.23;94.40;99818.03;5032012;28;20559;-67
2021/07/25 07:34:56;;;;;;;8.23;5.93;;;;;;;22.59;91.84;99823.38;5031306;28;20408;-67
2021/07/25 07:37:40;;;;;;;;;;;;;;;22.75;92.29;99839.88;5032713;28;20052;-66
2021/07/25 07:40:24;;;;;;;7.93;6.70;;;;;;;22.79;90.95;99832.06;5031403;28;20059;-66
2021/07/25 07:43:08;;;;;;;6.82;5.88;;;;;;;22.60;90.13;99836.75;5031302;28;20129;-67
2021/07/25 07:45:53;;;;;;;7.13;6.00;;;;;;;22.66;90.03;99835.84;5031206;28;20049;-67
2021/07/25 07:48:36;;;;;;;6.82;5.72;;;;;;;22.65;89.48;99839.63;5017536;28;20471;-67
2021/07/25 07:51:20;;;;;;;8.73;6.38;;;;;;;22.58;92.47;99833.44;5017224;28;20048;-67
2021/07/25 07:54:05;;;;;;;7.93;5.95;;;;;;;22.75;91.10;99829.00;5031127;28;20049;-67
2021/07/25 07:56:51;;;;;;;6.10;5.32;;;;;;;22.84;85.69;99833.00;5031391;28;20520;-67
2021/07/25 07:59:36;;;;;;;9.90;5.22;;;;;;;22.99;84.76;99829.84;5032388;28;20049;-67
2021/07/25 08:02:20;;;;;;;6.68;5.65;;;;;;;22.96;85.75;99831.19;5017327;28;20079;-66
2021/07/25 08:05:04;;;;;;;;;;;;;;;23.12;84.44;99825.03;5032793;28;20107;-66
2021/07/25 08:07:48;;;;;;;9.52;6.07;;;;;;;23.02;85.37;99822.06;5031253;28;20023;-67
2021/07/25 08:10:32;;;;;;;5.68;5.10;;;;;;;23.38;86.66;99819.16;5017105;28;20048;-66
2021/07/25 08:13:16;;;;;;;8.25;5.32;;;;;;;23.50;81.05;99821.88;5031951;28;20048;-65
2021/07/25 08:16:00;;;;;;;5.43;4.85;;;;;;;23.57;77.08;99825.28;5035219;28;20107;-66
2021/07/25 08:18:44;;;;;;;;;;;;;;;23.59;75.71;99815.84;5036006;28;20056;-66
2021/07/25 08:21:28;;;;;;;6.93;5.30;;;;;;;24.02;75.95;99821.69;5034765;28;20425;-66
2021/07/25 08:24:12;;;;;;;5.85;5.00;;;;;;;24.38;76.74;99819.44;5034670;28;20313;-66
2021/07/25 08:26:55;;;;;;;7.68;4.43;;;;;;;24.47;73.21;99819.84;5035454;28;20053;-67
2021/07/25 08:29:41;;;;;;;6.13;5.13;;;;;;;24.32;73.59;99819.56;5034831;28;20147;-66
2021/07/25 08:32:25;;;;;;;6.18;4.50;;;;;;;24.13;71.64;99812.66;5034815;28;20513;-66
2021/07/25 08:35:09;;;;;;;7.38;4.38;;;;;;;24.11;68.31;99815.59;5035257;28;20044;-66
2021/07/25 08:37:53;;;;;;;;;;;;;;;24.11;70.48;99812.06;5034853;28;20125;-66
2021/07/25 08:40:37;;;;;;;6.20;4.97;;;;;;;23.78;70.50;99803.75;5034368;28;19920;-66
2021/07/25 08:43:23;;;;;;;5.90;4.85;;;;;;;23.97;74.57;99802.53;5035105;28;20270;-65
2021/07/25 08:46:20;;;;;;;6.07;5.03;;;;;;;23.76;72.13;99807.75;5034315;28;20052;-66
2021/07/25 08:49:04;;;;;;;7.32;5.45;;;;;;;23.79;72.91;99810.84;5019961;28;20414;-66
2021/07/25 08:51:56;;;;;;;7.47;5.22;;;;;;;24.07;72.87;99797.28;5034166;28;20519;-66
2021/07/25 08:54:40;;;;;;;5.30;4.80;;;;;;;24.13;70.56;99804.47;5034071;28;20132;-66
2021/07/25 08:57:28;;;;;;;4.45;3.88;;;;;;;24.34;69.44;99812.81;5034036;28;20056;-66
2021/07/25 09:00:15;;;;;;;5.93;4.15;;;;;;;24.52;68.48;99807.13;5033960;28;20052;-67
2021/07/25 09:02:58;;;;;;;5.53;4.40;;;;;;;24.70;67.66;99811.59;5033998;28;20048;-65
2021/07/25 09:05:43;;;;;;;8.73;4.80;;;;;;;24.75;66.90;99809.78;5033781;28;20060;-66
2021/07/25 09:08:28;;;;;;;5.95;4.53;;;;;;;24.80;66.11;99809.06;5033735;28;20052;-67
2021/07/25 09:11:16;;;;;;;4.90;4.40;;;;;;;24.80;67.33;99803.59;5033364;28;20056;-66
2021/07/25 09:14:00;;;;;;;8.65;5.00;;;;;;;24.69;66.21;99813.50;5033661;28;20476;-66
2021/07/25 09:16:44;;;;;;;7.05;4.93;;;;;;;24.81;67.19;99813.44;5034780;28;20418;-67
2021/07/25 09:19:28;;;;;;;6.78;5.22;;;;;;;24.88;67.92;99817.66;5033640;28;20056;-66
2021/07/25 09:22:14;;;;;;;5.82;5.05;;;;;;;24.89;67.44;99818.47;5033401;28;20125;-66
2021/07/25 09:24:58;;;;;;;6.90;5.15;;;;;;;24.81;67.10;99816.16;5034656;28;20067;-66
2021/07/25 09:27:42;;;;;;;10.18;4.82;;;;;;;25.14;64.62;99816.97;5032523;28;20052;-66
2021/07/25 09:30:30;;;;;;;5.50;4.60;;;;;;;25.72;63.95;99820.06;5034217;28;20546;-66
2021/07/25 09:33:25;;;;;;;6.43;4.95;;;;;;;26.05;62.58;99808.22;5033401;28;20195;-66
2021/07/25 09:36:12;;;;;;;8.25;4.90;;;;;;;26.27;60.50;99812.59;5034241;28;20114;-66
2021/07/25 09:38:56;;;;;;;6.80;4.82;;;;;;;26.52;59.97;99821.09;5034070;28;20052;-67
2021/07/25 09:41:52;;;;;;;;;;;;;;;26.78;58.32;99813.97;5034332;28;20484;-67
2021/07/25 09:44:50;;;;;;;6.90;5.22;;;;;;;26.95;58.41;99814.69;5033011;28;19959;-66
2021/07/25 09:47:37;;;;;;;6.05;4.43;;;;;;;26.07;57.53;99817.00;5034142;28;20052;-66
2021/07/25 09:50:26;;;;;;;4.47;4.07;;;;;;;26.30;58.82;99811.25;5033055;28;20056;-66
2021/07/25 09:53:10;;;;;;;4.70;3.90;;;;;;;26.52;58.48;99810.16;5018779;28;20418;-65
2021/07/25 09:55:54;;;;;;;;;;;;;;;26.48;57.47;99819.09;5033692;28;20045;-66
2021/07/25 09:58:39;;;;;;;7.53;4.28;;;;;;;26.36;57.43;99826.63;5034023;28;20293;-66
2021/07/25 10:01:39;;;;;;;5.13;4.30;;;;;;;26.46;56.59;99832.22;5032649;28;20056;-66
2021/07/25 10:04:23;;;;;;;5.70;4.22;;;;;;;27.03;55.23;99825.97;5032814;28;20422;-66
2021/07/25 10:07:07;;;;;;;5.63;4.70;;;;;;;27.69;53.97;99822.59;5033799;28;20118;-66
2021/07/25 10:10:01;;;;;;;;;;;;;;;28.30;52.06;99825.41;5034410;28;20111;-66
2021/07/25 10:12:46;;;;;;;5.57;4.00;;;;;;;28.56;51.01;99823.56;5032684;28;19920;-68
2021/07/25 10:15:30;;;;;;;5.90;3.55;;;;;;;27.81;50.25;99826.81;5033363;28;20138;-67
2021/07/25 10:18:13;;;;;;;;;;;;;;;27.62;48.48;99833.00;5038150;23;20080;-70
2021/07/25 10:20:59;;;;;;;4.80;3.47;;;;;;;28.31;48.20;99821.56;5012484;28;19983;-69
2021/07/25 10:23:55;;;;;;;4.68;3.55;;;;;;;29.34;47.19;99812.94;5012719;28;20048;-70
2021/07/25 10:26:39;;;;;;;4.03;2.83;;;;;;;30.58;41.01;99822.69;5012430;28;20514;-70
2021/07/25 10:29:24;;;;;;;4.88;3.50;;;;;;;30.73;42.34;99819.06;5012326;28;20052;-70
2021/07/25 10:32:11;;;;;;;4.82;3.17;;;;;;;30.97;39.95;99817.22;5026292;28;20622;-69
2021/07/25 10:34:57;;;;;;;6.40;3.70;;;;;;;32.90;36.45;99812.50;5012486;28;20053;-70
2021/07/25 10:37:41;;;;;;;3.53;3.22;;;;;;;34.24;34.87;99806.47;5012062;28;20133;-70
2021/07/25 10:40:25;;;;;;;3.95;3.40;;;;;;;36.02;33.59;99798.63;5012146;28;20095;-70
2021/07/25 10:43:09;;;;;;;3.28;2.95;;;;;;;37.28;30.45;99799.13;5012642;28;20064;-69
2021/07/25 10:46:17;;;;;;;3.80;3.40;;;;;;;37.93;27.61;99792.09;5012115;28;20072;-69
2021/07/25 10:49:03;;;;;;;4.25;3.00;;;;;;;37.73;27.74;99795.59;5013051;28;20044;-70
2021/07/25 10:51:57;;;;;;;3.05;2.80;;;;;;;37.81;27.51;99791.13;5012295;28;20092;-70
2021/07/25 10:54:46;;;;;;;3.65;3.30;;;;;;;38.73;26.45;99791.72;5012109;28;20072;-70
2021/07/25 10:58:02;;;;;;;4.28;2.97;;;;;;;39.29;26.54;99785.53;5013432;28;20479;-68
2021/07/25 11:00:50;;;;;;;5.75;3.42;;;;;;;40.76;25.04;99782.91;5012273;28;20049;-69
2021/07/25 11:03:35;;;;;;;4.97;3.45;;;;;;;41.03;24.54;99784.91;5012247;28;20049;-71
2021/07/25 11:06:19;;;;;;;4.05;3.58;;;;;;;41.23;24.60;99769.88;5012879;28;20108;-69
2021/07/25 11:09:03;;;;;;;5.10;3.50;;;;;;;42.17;24.19;99777.22;5026264;28;20166;-69
2021/07/25 11:11:50;;;;;;;3.75;3.30;;;;;;;42.82;22.51;99777.09;5012121;28;20109;-69
2021/07/25 11:14:55;;;;;;;3.42;2.80;;;;;;;41.31;21.59;99771.75;5013093;28;20371;-68
2021/07/25 11:17:46;;;;;;;4.18;3.08;;;;;;;41.72;22.00;99773.25;5012654;28;20521;-69
2021/07/25 11:20:44;;;;;;;6.65;3.20;;;;;;;42.04;20.68;99778.47;5012938;28;20053;-67
2021/07/25 11:23:33;;;;;;;3.30;2.97;;;;;;;41.76;21.50;99774.97;4998338;28;20132;-68
2021/07/25 11:26:38;;;;;;;3.13;2.90;;;;;;;42.50;20.29;99773.97;5012083;28;20053;-68
2021/07/25 11:29:22;;;;;;;3.42;3.05;;;;;;;42.93;19.98;99771.75;5025359;28;20053;-68
2021/07/25 11:32:37;;;;;;;3.25;2.60;;;;;;;41.11;20.83;99758.75;5012569;28;20099;-68
2021/07/25 11:35:21;;;;;;;5.40;2.97;;;;;;;42.08;21.86;99768.16;5012825;28;20049;-68
2021/07/25 11:38:10;;;;;;;3.70;2.88;;;;;;;42.22;20.85;99767.69;5012587;28;20091;-67
2021/07/25 11:40:55;;;;;;;3.70;2.88;;;;;;;42.20;20.50;99770.88;5025710;28;20088;-69
2021/07/25 11:44:04;;;;;;;3.42;3.08;;;;;;;42.61;19.34;99769.41;5011758;28;20432;-68
2021/07/25 11:46:48;;;;;;;3.17;2.90;;;;;;;42.03;20.15;99764.84;5011642;28;20533;-68
2021/07/25 11:49:36;;;;;;;4.22;2.92;;;;;;;40.89;20.96;99764.94;5012194;28;20426;-70
2021/07/25 11:52:20;;;;;;;6.32;3.25;;;;;;;41.51;21.82;99761.50;5029125;28;20052;-69
2021/07/25 11:55:04;;;;;;;3.83;2.75;;;;;;;42.60;20.96;99750.97;5015428;28;20057;-69
2021/07/25 11:57:49;;;;;;;3.95;3.13;;;;;;;41.80;20.66;99756.28;5016116;28;20140;-68
2021/07/25 12:00:32;;;;;;;4.20;3.08;;;;;;;42.10;20.65;99749.03;5001534;28;20048;-68
2021/07/25 12:03:28;;;;;;;3.47;3.10;;;;;;;42.41;19.53;99743.34;5001432;28;20502;-69
2021/07/25 12:06:12;;;;;;;3.53;3.17;;;;;;;42.57;21.05;99735.69;5016290;28;20044;-68
2021/07/25 12:09:07;;;;;;;4.35;3.13;;;;;;;41.51;20.86;99742.69;5015934;28;20052;-68
2021/07/25 12:12:08;;;;;;;5.25;3.30;;;;;;;42.08;21.33;99740.16;5015206;28;20554;-68
2021/07/25 12:15:00;;;;;;;4.20;3.60;;;;;;;40.30;21.61;99741.53;5028804;28;20052;-67
2021/07/25 12:17:51;;;;;;;4.28;3.55;;;;;;;39.60;23.53;99733.59;5001254;28;20505;-71
2021/07/25 12:20:36;;;;;;;4.35;3.33;;;;;;;40.81;23.19;99726.72;5014768;28;20458;-68
2021/07/25 12:23:35;;;;;;;4.53;3.33;;;;;;;42.09;22.97;99727.78;5014704;28;20048;-69
2021/07/25 12:26:37;;;;;;;3.95;3.55;;;;;;;42.30;21.77;99722.69;5015969;28;20131;-69
2021/07/25 12:29:46;;;;;;;4.13;3.22;;;;;;;42.79;21.16;99726.56;5014813;28;20180;-69
2021/07/25 12:32:31;;;;;;;3.42;3.08;;;;;;;41.46;22.43;99726.19;5014849;28;20077;-68
2021/07/25 12:35:22;;;;;;;4.78;3.17;;;;;;;41.53;22.82;99720.75;5028671;28;20085;-69
2021/07/25 12:38:33;;;;;;;3.92;3.35;;;;;;;42.62;21.65;99712.16;5028232;28;20049;-69
2021/07/25 12:41:17;;;;;;;5.20;3.53;;;;;;;43.15;20.60;99709.25;5014871;28;20513;-69
2021/07/25 12:44:01;;;;;;;4.80;3.33;;;;;;;43.25;19.15;99708.66;5014376;28;20072;-69
2021/07/25 12:46:45;;;;;;;3.97;3.67;;;;;;;40.87;21.79;99711.34;5000593;28;20080;-69
2021/07/25 12:49:29;;;;;;;7.65;3.55;;;;;;;40.02;22.52;99703.53;5015223;28;20044;-70
2021/07/25 12:52:20;;;;;;;4.18;3.78;;;;;;;40.43;23.70;99704.03;5014157;28;20108;-67
2021/07/25 12:55:04;;;;;;;4.22;3.92;;;;;;;41.45;22.06;99710.56;5027726;28;20096;-69